Main page
METAR-TAF:

METAR-TAF

Airports :

Leconfield, England

latitude: 53-52-37N, longitude: 0-26-15W, elevation: 7 m

Current weather observation

The report was made 26 minutes ago, at 08:50 UTC
Wind 10 kt from the Southwest
Temperature 12°C
Humidity 94%
Pressure 1017 hPa
Visibility 10 km or more
light rain showers

METAR: EGXV 290850Z AUTO 23010KT 9999 -SHRA FEW021/// BKN070/// 12/11 Q1017

Time: 10:16 (09:16 UTC)


TAF: missing

Weather observations and forecasts of more than 4000 airports (METAR and TAF reports).

The available stations are represented by yellow and red dots on the map.

Hover mouse over dot to see the name of the station.

Then click to see weather observations and forecasts.

To change the map : click on the green buttons with a black cross to zoom in, on the green button with a dash to zoom out, or on the green arrows for adjacent maps.


METAR-TAF: